sensor_id;sensor_type;location;lat;lon;timestamp;pressure;altitude;pressure_sealevel;temperature;humidity
32081;BME280;18593;51.426;7.030;2023-04-21T00:00:07;100428.63;;;10.19;67.41
32081;BME280;18593;51.426;7.030;2023-04-21T00:02:35;100436.63;;;10.19;67.31
32081;BME280;18593;51.426;7.030;2023-04-21T00:05:06;100432.94;;;10.20;67.29
32081;BME280;18593;51.426;7.030;2023-04-21T00:07:34;100433.78;;;10.20;67.07
32081;BME280;18593;51.426;7.030;2023-04-21T00:10:05;100431.13;;;10.20;67.33
32081;BME280;18593;51.426;7.030;2023-04-21T00:12:34;100431.13;;;10.20;67.32
32081;BME280;18593;51.426;7.030;2023-04-21T00:15:02;100416.13;;;10.19;67.42
32081;BME280;18593;51.426;7.030;2023-04-21T00:17:29;100430.50;;;10.18;67.43
32081;BME280;18593;51.426;7.030;2023-04-21T00:19:57;100425.16;;;10.18;67.46
32081;BME280;18593;51.426;7.030;2023-04-21T00:22:24;100427.81;;;10.18;67.85
32081;BME280;18593;51.426;7.030;2023-04-21T00:24:51;100415.53;;;10.17;67.78
32081;BME280;18593;51.426;7.030;2023-04-21T00:27:19;100404.88;;;10.17;67.74
32081;BME280;18593;51.426;7.030;2023-04-21T00:29:47;100412.28;;;10.15;67.85
32081;BME280;18593;51.426;7.030;2023-04-21T00:32:14;100407.53;;;10.17;67.70
32081;BME280;18593;51.426;7.030;2023-04-21T00:34:42;100396.28;;;10.15;67.82
32081;BME280;18593;51.426;7.030;2023-04-21T00:37:11;100390.13;;;10.15;68.17
32081;BME280;18593;51.426;7.030;2023-04-21T00:39:38;100393.00;;;10.13;68.11
32081;BME280;18593;51.426;7.030;2023-04-21T00:42:06;100381.75;;;10.11;68.07
32081;BME280;18593;51.426;7.030;2023-04-21T00:44:34;100381.75;;;10.11;68.08
32081;BME280;18593;51.426;7.030;2023-04-21T00:47:04;100384.41;;;10.11;68.29
32081;BME280;18593;51.426;7.030;2023-04-21T00:49:31;100382.56;;;10.12;68.32
32081;BME280;18593;51.426;7.030;2023-04-21T00:51:59;100393.22;;;10.12;68.36
32081;BME280;18593;51.426;7.030;2023-04-21T00:54:26;100392.41;;;10.11;68.28
32081;BME280;18593;51.426;7.030;2023-04-21T00:56:54;100393.00;;;10.13;68.32
32081;BME280;18593;51.426;7.030;2023-04-21T00:59:23;100388.69;;;10.12;68.23
32081;BME280;18593;51.426;7.030;2023-04-21T01:01:50;100389.75;;;10.11;68.54
32081;BME280;18593;51.426;7.030;2023-04-21T01:04:21;100389.09;;;10.09;68.44
32081;BME280;18593;51.426;7.030;2023-04-21T01:06:48;100381.34;;;10.07;69.13
32081;BME280;18593;51.426;7.030;2023-04-21T01:09:16;100383.19;;;10.07;68.74
32081;BME280;18593;51.426;7.030;2023-04-21T01:12:00;100377.41;;;10.10;68.72
32081;BME280;18593;51.426;7.030;2023-04-21T01:14:28;100373.94;;;10.10;69.08
32081;BME280;18593;51.426;7.030;2023-04-21T01:16:56;100386.88;;;10.06;69.19
32081;BME280;18593;51.426;7.030;2023-04-21T01:19:28;100381.75;;;10.04;69.07
32081;BME280;18593;51.426;7.030;2023-04-21T01:21:57;100374.56;;;10.05;69.02
32081;BME280;18593;51.426;7.030;2023-04-21T01:24:37;100366.56;;;10.05;69.11
32081;BME280;18593;51.426;7.030;2023-04-21T01:27:08;100366.56;;;10.05;69.39
32081;BME280;18593;51.426;7.030;2023-04-21T01:29:37;100357.16;;;10.02;69.52
32081;BME280;18593;51.426;7.030;2023-04-21T01:32:07;100359.84;;;10.02;69.69
32081;BME280;18593;51.426;7.030;2023-04-21T01:34:34;100365.56;;;9.99;69.63
32081;BME280;18593;51.426;7.030;2023-04-21T01:37:06;100370.09;;;9.99;69.84
32081;BME280;18593;51.426;7.030;2023-04-21T01:39:37;100384.03;;;10.01;69.71
32081;BME280;18593;51.426;7.030;2023-04-21T01:42:05;100373.38;;;10.01;69.79
32081;BME280;18593;51.426;7.030;2023-04-21T01:44:35;100374.19;;;10.01;69.72
32081;BME280;18593;51.426;7.030;2023-04-21T01:47:03;100374.19;;;10.01;69.68
32081;BME280;18593;51.426;7.030;2023-04-21T01:49:30;100365.97;;;10.03;69.83
32081;BME280;18593;51.426;7.030;2023-04-21T01:51:57;100357.97;;;10.03;70.13
32081;BME280;18593;51.426;7.030;2023-04-21T01:54:26;100354.28;;;10.04;70.04
32081;BME280;18593;51.426;7.030;2023-04-21T01:56:53;100358.56;;;10.05;69.83
32081;BME280;18593;51.426;7.030;2023-04-21T01:59:21;100363.09;;;10.04;69.92
32081;BME280;18593;51.426;7.030;2023-04-21T02:01:48;100361.25;;;10.05;69.97
32081;BME280;18593;51.426;7.030;2023-04-21T02:04:15;100361.06;;;10.06;70.00
32081;BME280;18593;51.426;7.030;2023-04-21T02:06:42;100359.19;;;10.07;70.07
32081;BME280;18593;51.426;7.030;2023-04-21T02:09:10;100364.31;;;10.09;70.03
32081;BME280;18593;51.426;7.030;2023-04-21T02:11:38;100356.31;;;10.09;70.17
32081;BME280;18593;51.426;7.030;2023-04-21T02:14:06;100365.13;;;10.09;70.17
32081;BME280;18593;51.426;7.030;2023-04-21T02:16:33;100365.13;;;10.09;69.92
32081;BME280;18593;51.426;7.030;2023-04-21T02:19:00;100358.16;;;10.08;70.04
32081;BME280;18593;51.426;7.030;2023-04-21T02:21:28;100368.00;;;10.07;70.04
32081;BME280;18593;51.426;7.030;2023-04-21T02:23:55;100363.50;;;10.08;70.03
32081;BME280;18593;51.426;7.030;2023-04-21T02:26:25;100360.00;;;10.07;70.19
32081;BME280;18593;51.426;7.030;2023-04-21T02:28:54;100355.50;;;10.08;70.01
32081;BME280;18593;51.426;7.030;2023-04-21T02:31:21;100350.41;;;10.06;70.19
32081;BME280;18593;51.426;7.030;2023-04-21T02:33:48;100357.56;;;10.06;70.16
32081;BME280;18593;51.426;7.030;2023-04-21T02:36:15;100353.06;;;10.06;70.53
32081;BME280;18593;51.426;7.030;2023-04-21T02:38:43;100354.91;;;10.06;70.44
32081;BME280;18593;51.426;7.030;2023-04-21T02:41:10;100355.50;;;10.08;70.70
32081;BME280;18593;51.426;7.030;2023-04-21T02:43:38;100350.78;;;10.10;70.33
32081;BME280;18593;51.426;7.030;2023-04-21T02:46:08;100353.25;;;10.12;70.44
32081;BME280;18593;51.426;7.030;2023-04-21T02:48:35;100347.91;;;10.12;70.34
32081;BME280;18593;51.426;7.030;2023-04-21T02:51:03;100351.41;;;10.12;70.42
32081;BME280;18593;51.426;7.030;2023-04-21T02:53:30;100358.34;;;10.13;70.33
32081;BME280;18593;51.426;7.030;2023-04-21T02:55:58;100359.16;;;10.14;70.30
32081;BME280;18593;51.426;7.030;2023-04-21T02:58:29;100350.56;;;10.12;70.58
32081;BME280;18593;51.426;7.030;2023-04-21T03:00:57;100341.53;;;10.13;70.58
32081;BME280;18593;51.426;7.030;2023-04-21T03:03:25;100349.53;;;10.13;70.54
32081;BME280;18593;51.426;7.030;2023-04-21T03:05:56;100345.03;;;10.13;70.55
32081;BME280;18593;51.426;7.030;2023-04-21T03:08:23;100347.69;;;10.13;70.57
32081;BME280;18593;51.426;7.030;2023-04-21T03:10:51;100356.50;;;10.14;70.71
32081;BME280;18593;51.426;7.030;2023-04-21T03:13:21;100357.31;;;10.14;70.55
32081;BME280;18593;51.426;7.030;2023-04-21T03:15:50;100350.13;;;10.15;70.79
32081;BME280;18593;51.426;7.030;2023-04-21T03:18:18;100355.47;;;10.15;70.55
32081;BME280;18593;51.426;7.030;2023-04-21T03:20:46;100357.31;;;10.14;70.72
32081;BME280;18593;51.426;7.030;2023-04-21T03:23:14;100359.97;;;10.14;70.80
32081;BME280;18593;51.426;7.030;2023-04-21T03:25:41;100361.63;;;10.15;70.68
32081;BME280;18593;51.426;7.030;2023-04-21T03:28:09;100358.75;;;10.17;70.94
32081;BME280;18593;51.426;7.030;2023-04-21T03:30:36;100361.63;;;10.15;70.91
32081;BME280;18593;51.426;7.030;2023-04-21T03:33:03;100361.63;;;10.15;70.92
32081;BME280;18593;51.426;7.030;2023-04-21T03:35:32;100362.47;;;10.16;70.82
32081;BME280;18593;51.426;7.030;2023-04-21T03:38:01;100353.84;;;10.14;70.73
32081;BME280;18593;51.426;7.030;2023-04-21T03:40:28;100348.50;;;10.14;70.86
32081;BME280;18593;51.426;7.030;2023-04-21T03:42:56;100348.31;;;10.15;70.94
32081;BME280;18593;51.426;7.030;2023-04-21T03:45:24;100350.97;;;10.15;70.94
32081;BME280;18593;51.426;7.030;2023-04-21T03:47:53;100340.31;;;10.15;70.92
32081;BME280;18593;51.426;7.030;2023-04-21T03:50:20;100345.66;;;10.15;70.82
32081;BME280;18593;51.426;7.030;2023-04-21T03:52:48;100345.84;;;10.14;70.98
32081;BME280;18593;51.426;7.030;2023-04-21T03:55:17;100351.16;;;10.14;70.77
32081;BME280;18593;51.426;7.030;2023-04-21T03:57:44;100341.94;;;10.16;70.64
32081;BME280;18593;51.426;7.030;2023-04-21T04:00:12;100346.47;;;10.16;70.89
32081;BME280;18593;51.426;7.030;2023-04-21T04:02:40;100345.44;;;10.17;70.57
32081;BME280;18593;51.426;7.030;2023-04-21T04:05:08;100343.81;;;10.16;70.62
32081;BME280;18593;51.426;7.030;2023-04-21T04:07:35;100345.66;;;10.15;70.58
32081;BME280;18593;51.426;7.030;2023-04-21T04:10:03;100352.00;;;10.14;70.79
32081;BME280;18593;51.426;7.030;2023-04-21T04:12:32;100347.69;;;10.13;70.91
32081;BME280;18593;51.426;7.030;2023-04-21T04:14:59;100347.69;;;10.13;70.89
32081;BME280;18593;51.426;7.030;2023-04-21T04:17:26;100348.50;;;10.14;70.80
32081;BME280;18593;51.426;7.030;2023-04-21T04:19:53;100343.19;;;10.14;70.75
32081;BME280;18593;51.426;7.030;2023-04-21T04:22:21;100337.03;;;10.13;70.87
32081;BME280;18593;51.426;7.030;2023-04-21T04:24:48;100338.88;;;10.13;70.91
32081;BME280;18593;51.426;7.030;2023-04-21T04:27:16;100336.22;;;10.13;71.11
32081;BME280;18593;51.426;7.030;2023-04-21T04:29:46;100326.38;;;10.13;70.93
32081;BME280;18593;51.426;7.030;2023-04-21T04:32:14;100323.13;;;10.11;71.02
32081;BME280;18593;51.426;7.030;2023-04-21T04:34:41;100333.56;;;10.13;70.74
32081;BME280;18593;51.426;7.030;2023-04-21T04:37:08;100343.41;;;10.12;70.80
32081;BME280;18593;51.426;7.030;2023-04-21T04:39:36;100338.28;;;10.11;71.10
32081;BME280;18593;51.426;7.030;2023-04-21T04:42:06;100336.63;;;10.10;70.92
32081;BME280;18593;51.426;7.030;2023-04-21T04:44:34;100344.63;;;10.10;71.10
32081;BME280;18593;51.426;7.030;2023-04-21T04:47:03;100343.81;;;10.09;70.92
32081;BME280;18593;51.426;7.030;2023-04-21T04:49:32;100350.19;;;10.08;70.89
32081;BME280;18593;51.426;7.030;2023-04-21T04:51:59;100344.25;;;10.06;70.96
32081;BME280;18593;51.426;7.030;2023-04-21T04:54:26;100344.25;;;10.06;70.98
32081;BME280;18593;51.426;7.030;2023-04-21T04:56:54;100343.63;;;10.04;70.96
32081;BME280;18593;51.426;7.030;2023-04-21T04:59:22;100350.00;;;10.03;71.03
32081;BME280;18593;51.426;7.030;2023-04-21T05:01:49;100353.91;;;10.00;71.16
32081;BME280;18593;51.426;7.030;2023-04-21T05:04:18;100355.72;;;10.00;70.92
32081;BME280;18593;51.426;7.030;2023-04-21T05:06:45;100355.72;;;10.00;70.76
32081;BME280;18593;51.426;7.030;2023-04-21T05:09:15;100347.72;;;10.00;71.05
32081;BME280;18593;51.426;7.030;2023-04-21T05:11:42;100346.09;;;9.99;70.96
32081;BME280;18593;51.426;7.030;2023-04-21T05:14:10;100355.94;;;9.98;71.01
32081;BME280;18593;51.426;7.030;2023-04-21T05:16:37;100363.34;;;9.96;71.05
32081;BME280;18593;51.426;7.030;2023-04-21T05:19:04;100358.19;;;9.95;71.18
32081;BME280;18593;51.426;7.030;2023-04-21T05:21:33;100347.53;;;9.95;71.08
32081;BME280;18593;51.426;7.030;2023-04-21T05:24:00;100354.72;;;9.94;70.98
32081;BME280;18593;51.426;7.030;2023-04-21T05:26:28;100359.69;;;9.91;70.87
32081;BME280;18593;51.426;7.030;2023-04-21T05:28:57;100352.69;;;9.90;70.87
32081;BME280;18593;51.426;7.030;2023-04-21T05:31:25;100352.28;;;9.93;70.77
32081;BME280;18593;51.426;7.030;2023-04-21T05:33:52;100356.34;;;9.95;70.79
32081;BME280;18593;51.426;7.030;2023-04-21T05:36:19;100351.66;;;9.97;70.74
32081;BME280;18593;51.426;7.030;2023-04-21T05:38:48;100358.38;;;10.00;70.90
32081;BME280;18593;51.426;7.030;2023-04-21T05:41:15;100357.97;;;10.03;70.99
32081;BME280;18593;51.426;7.030;2023-04-21T05:43:42;100367.19;;;10.07;71.14
32081;BME280;18593;51.426;7.030;2023-04-21T05:46:10;100363.91;;;10.12;71.17
32081;BME280;18593;51.426;7.030;2023-04-21T05:48:37;100362.84;;;10.19;71.11
32081;BME280;18593;51.426;7.030;2023-04-21T05:51:08;100366.94;;;10.28;71.67
32081;BME280;18593;51.426;7.030;2023-04-21T05:53:36;100363.63;;;10.33;71.59
32081;BME280;18593;51.426;7.030;2023-04-21T05:56:07;100368.53;;;10.36;71.96
32081;BME280;18593;51.426;7.030;2023-04-21T05:58:34;100359.75;;;10.36;71.49
32081;BME280;18593;51.426;7.030;2023-04-21T06:01:02;100366.69;;;10.37;71.56
32081;BME280;18593;51.426;7.030;2023-04-21T06:03:30;100370.19;;;10.37;71.54
32081;BME280;18593;51.426;7.030;2023-04-21T06:05:58;100356.63;;;10.39;71.87
32081;BME280;18593;51.426;7.030;2023-04-21T06:08:26;100368.50;;;10.43;71.97
32081;BME280;18593;51.426;7.030;2023-04-21T06:10:53;100366.47;;;10.45;71.47
32081;BME280;18593;51.426;7.030;2023-04-21T06:13:22;100369.50;;;10.48;71.54
32081;BME280;18593;51.426;7.030;2023-04-21T06:15:49;100371.53;;;10.53;71.58
32081;BME280;18593;51.426;7.030;2023-04-21T06:18:16;100361.03;;;10.58;71.63
32081;BME280;18593;51.426;7.030;2023-04-21T06:20:49;100358.53;;;10.63;72.21
32081;BME280;18593;51.426;7.030;2023-04-21T06:23:17;100358.94;;;10.67;72.12
32081;BME280;18593;51.426;7.030;2023-04-21T06:25:44;100360.56;;;10.68;72.21
32081;BME280;18593;51.426;7.030;2023-04-21T06:28:11;100358.13;;;10.66;71.69
32081;BME280;18593;51.426;7.030;2023-04-21T06:30:40;100356.06;;;10.68;71.94
32081;BME280;18593;51.426;7.030;2023-04-21T06:33:09;100351.13;;;10.72;71.76
32081;BME280;18593;51.426;7.030;2023-04-21T06:35:36;100342.25;;;10.78;71.80
32081;BME280;18593;51.426;7.030;2023-04-21T06:38:04;100342.88;;;10.80;71.37
32081;BME280;18593;51.426;7.030;2023-04-21T06:40:31;100348.19;;;10.80;71.07
32081;BME280;18593;51.426;7.030;2023-04-21T06:42:58;100343.69;;;10.80;71.07
32081;BME280;18593;51.426;7.030;2023-04-21T06:45:25;100339.16;;;10.81;70.97
32081;BME280;18593;51.426;7.030;2023-04-21T06:47:54;100349.81;;;10.81;71.02
32081;BME280;18593;51.426;7.030;2023-04-21T06:50:21;100349.59;;;10.82;71.01
32081;BME280;18593;51.426;7.030;2023-04-21T06:52:48;100348.78;;;10.82;71.17
32081;BME280;18593;51.426;7.030;2023-04-21T06:55:16;100354.75;;;10.84;71.26
32081;BME280;18593;51.426;7.030;2023-04-21T06:57:43;100356.38;;;10.85;71.51
32081;BME280;18593;51.426;7.030;2023-04-21T07:00:12;100365.19;;;10.86;71.42
32081;BME280;18593;51.426;7.030;2023-04-21T07:02:39;100369.50;;;10.87;71.47
32081;BME280;18593;51.426;7.030;2023-04-21T07:05:09;100359.44;;;10.89;71.44
32081;BME280;18593;51.426;7.030;2023-04-21T07:07:36;100363.72;;;10.90;71.56
32081;BME280;18593;51.426;7.030;2023-04-21T07:10:04;100356.16;;;10.87;71.71
32081;BME280;18593;51.426;7.030;2023-04-21T07:12:32;100352.44;;;10.88;71.74
32081;BME280;18593;51.426;7.030;2023-04-21T07:14:59;100350.38;;;10.90;71.81
32081;BME280;18593;51.426;7.030;2023-04-21T07:17:26;100349.34;;;10.91;72.08
32081;BME280;18593;51.426;7.030;2023-04-21T07:19:53;100344.59;;;10.93;71.82
32081;BME280;18593;51.426;7.030;2023-04-21T07:22:22;100339.88;;;10.95;72.03
32081;BME280;18593;51.426;7.030;2023-04-21T07:24:49;100337.81;;;10.97;72.54
32081;BME280;18593;51.426;7.030;2023-04-21T07:27:16;100347.44;;;10.98;72.53
32081;BME280;18593;51.426;7.030;2023-04-21T07:29:44;100345.38;;;11.00;72.93
32081;BME280;18593;51.426;7.030;2023-04-21T07:32:11;100355.84;;;11.01;72.57
32081;BME280;18593;51.426;7.030;2023-04-21T07:34:39;100350.06;;;11.04;72.26
32081;BME280;18593;51.426;7.030;2023-04-21T07:37:06;100341.63;;;11.07;72.12
32081;BME280;18593;51.426;7.030;2023-04-21T07:39:34;100343.03;;;11.10;72.01
32081;BME280;18593;51.426;7.030;2023-04-21T07:42:02;100332.16;;;11.12;72.28
32081;BME280;18593;51.426;7.030;2023-04-21T07:44:33;100332.75;;;11.14;72.67
32081;BME280;18593;51.426;7.030;2023-04-21T07:47:00;100329.88;;;11.15;72.44
32081;BME280;18593;51.426;7.030;2023-04-21T07:49:27;100332.09;;;11.18;72.63
32081;BME280;18593;51.426;7.030;2023-04-21T07:51:54;100336.41;;;11.19;72.91
32081;BME280;18593;51.426;7.030;2023-04-21T07:54:21;100330.03;;;11.20;72.98
32081;BME280;18593;51.426;7.030;2023-04-21T07:56:50;100337.22;;;11.20;73.02
32081;BME280;18593;51.426;7.030;2023-04-21T07:59:17;100335.94;;;11.22;72.74
32081;BME280;18593;51.426;7.030;2023-04-21T08:01:44;100327.75;;;11.24;72.88
32081;BME280;18593;51.426;7.030;2023-04-21T08:04:12;100334.28;;;11.28;73.04
32081;BME280;18593;51.426;7.030;2023-04-21T08:06:39;100324.41;;;11.28;73.31
32081;BME280;18593;51.426;7.030;2023-04-21T08:09:06;100336.72;;;11.29;73.31
32081;BME280;18593;51.426;7.030;2023-04-21T08:11:33;100341.63;;;11.32;73.11
32081;BME280;18593;51.426;7.030;2023-04-21T08:14:02;100343.03;;;11.35;73.31
32081;BME280;18593;51.426;7.030;2023-04-21T08:16:29;100333.97;;;11.36;73.47
32081;BME280;18593;51.426;7.030;2023-04-21T08:18:56;100324.50;;;11.40;72.86
32081;BME280;18593;51.426;7.030;2023-04-21T08:21:24;100322.44;;;11.42;72.87
32081;BME280;18593;51.426;7.030;2023-04-21T08:23:51;100343.59;;;11.44;73.51
32081;BME280;18593;51.426;7.030;2023-04-21T08:26:20;100340.91;;;11.44;73.59
32081;BME280;18593;51.426;7.030;2023-04-21T08:28:47;100348.50;;;11.47;73.25
32081;BME280;18593;51.426;7.030;2023-04-21T08:31:18;100346.41;;;11.49;72.86
32081;BME280;18593;51.426;7.030;2023-04-21T08:33:45;100344.31;;;11.51;73.30
32081;BME280;18593;51.426;7.030;2023-04-21T08:36:13;100342.25;;;11.53;73.38
32081;BME280;18593;51.426;7.030;2023-04-21T08:38:42;100338.53;;;11.54;73.31
32081;BME280;18593;51.426;7.030;2023-04-21T08:41:10;100342.41;;;11.58;72.87
32081;BME280;18593;51.426;7.030;2023-04-21T08:43:37;100343.00;;;11.60;73.17
32081;BME280;18593;51.426;7.030;2023-04-21T08:46:07;100339.91;;;11.63;73.38
32081;BME280;18593;51.426;7.030;2023-04-21T08:48:37;100335.94;;;11.66;73.60
32081;BME280;18593;51.426;7.030;2023-04-21T08:51:08;100339.81;;;11.70;73.70
32081;BME280;18593;51.426;7.030;2023-04-21T08:53:36;100338.78;;;11.71;73.60
32081;BME280;18593;51.426;7.030;2023-04-21T08:56:04;100337.53;;;11.73;73.53
32081;BME280;18593;51.426;7.030;2023-04-21T08:58:31;100343.47;;;11.75;73.55
32081;BME280;18593;51.426;7.030;2023-04-21T09:00:58;100346.75;;;11.77;73.84
32081;BME280;18593;51.426;7.030;2023-04-21T09:03:27;100342.44;;;11.76;73.15
32081;BME280;18593;51.426;7.030;2023-04-21T09:06:00;100341.41;;;11.77;73.33
32081;BME280;18593;51.426;7.030;2023-04-21T09:08:28;100346.50;;;11.79;72.68
32081;BME280;18593;51.426;7.030;2023-04-21T09:10:56;100346.09;;;11.82;73.79
32081;BME280;18593;51.426;7.030;2023-04-21T09:13:29;100348.31;;;11.85;73.43
32081;BME280;18593;51.426;7.030;2023-04-21T09:15:58;100338.44;;;11.85;73.13
32081;BME280;18593;51.426;7.030;2023-04-21T09:18:28;100339.63;;;11.90;73.36
32081;BME280;18593;51.426;7.030;2023-04-21T09:21:09;100341.88;;;11.93;73.67
32081;BME280;18593;51.426;7.030;2023-04-21T09:23:44;100334.91;;;11.92;73.50
32081;BME280;18593;51.426;7.030;2023-04-21T09:26:13;100335.47;;;11.94;73.24
32081;BME280;18593;51.426;7.030;2023-04-21T09:28:41;100326.41;;;11.95;73.26
32081;BME280;18593;51.426;7.030;2023-04-21T09:31:17;100335.03;;;11.97;73.15
32081;BME280;18593;51.426;7.030;2023-04-21T09:33:46;100338.91;;;12.01;74.46
32081;BME280;18593;51.426;7.030;2023-04-21T09:36:23;100337.63;;;12.03;74.55
32081;BME280;18593;51.426;7.030;2023-04-21T09:39:02;100336.38;;;12.06;74.46
32081;BME280;18593;51.426;7.030;2023-04-21T09:41:30;100338.59;;;12.09;74.62
32081;BME280;18593;51.426;7.030;2023-04-21T09:43:58;100322.09;;;12.12;74.23
32081;BME280;18593;51.426;7.030;2023-04-21T09:46:29;100331.31;;;12.16;75.27
32081;BME280;18593;51.426;7.030;2023-04-21T09:49:00;100334.94;;;12.22;75.13
32081;BME280;18593;51.426;7.030;2023-04-21T09:51:29;100334.47;;;12.25;74.95
32081;BME280;18593;51.426;7.030;2023-04-21T09:53:59;100338.56;;;12.27;73.67
32081;BME280;18593;51.426;7.030;2023-04-21T09:56:33;100334.84;;;12.28;73.08
32081;BME280;18593;51.426;7.030;2023-04-21T09:59:06;100337.09;;;12.31;73.97
32081;BME280;18593;51.426;7.030;2023-04-21T10:01:37;100331.72;;;12.31;73.21
32081;BME280;18593;51.426;7.030;2023-04-21T10:04:06;100327.19;;;12.32;71.95
32081;BME280;18593;51.426;7.030;2023-04-21T10:06:34;100318.38;;;12.31;71.49
32081;BME280;18593;51.426;7.030;2023-04-21T10:09:03;100304.19;;;12.31;71.38
32081;BME280;18593;51.426;7.030;2023-04-21T10:11:31;100304.75;;;12.33;71.82
32081;BME280;18593;51.426;7.030;2023-04-21T10:14:00;100298.59;;;12.32;71.70
32081;BME280;18593;51.426;7.030;2023-04-21T10:16:27;100304.53;;;12.34;72.33
32081;BME280;18593;51.426;7.030;2023-04-21T10:18:54;100299.78;;;12.36;72.05
32081;BME280;18593;51.426;7.030;2023-04-21T10:21:26;100303.84;;;12.39;71.90
32081;BME280;18593;51.426;7.030;2023-04-21T10:23:56;100305.69;;;12.38;71.17
32081;BME280;18593;51.426;7.030;2023-04-21T10:26:26;100298.72;;;12.37;71.30
32081;BME280;18593;51.426;7.030;2023-04-21T10:28:56;100302.00;;;12.40;72.84
32081;BME280;18593;51.426;7.030;2023-04-21T10:31:30;100305.25;;;12.42;73.05
32081;BME280;18593;51.426;7.030;2023-04-21T10:34:21;100309.13;;;12.46;72.37
32081;BME280;18593;51.426;7.030;2023-04-21T10:37:16;100306.44;;;12.46;72.25
32081;BME280;18593;51.426;7.030;2023-04-21T10:39:55;100311.31;;;12.49;72.06
32081;BME280;18593;51.426;7.030;2023-04-21T10:42:26;100310.31;;;12.50;71.44
32081;BME280;18593;51.426;7.030;2023-04-21T10:45:10;100307.38;;;12.51;71.03
32081;BME280;18593;51.426;7.030;2023-04-21T10:47:44;100301.00;;;12.52;71.02
32081;BME280;18593;51.426;7.030;2023-04-21T10:50:16;100291.91;;;12.53;70.90
32081;BME280;18593;51.426;7.030;2023-04-21T10:52:46;100287.59;;;12.52;70.33
32081;BME280;18593;51.426;7.030;2023-04-21T10:55:19;100291.34;;;12.51;70.20
32081;BME280;18593;51.426;7.030;2023-04-21T10:57:47;100295.75;;;12.46;70.56
32081;BME280;18593;51.426;7.030;2023-04-21T11:00:17;100290.16;;;12.47;70.73
32081;BME280;18593;51.426;7.030;2023-04-21T11:02:55;100289.91;;;12.49;70.91
32081;BME280;18593;51.426;7.030;2023-04-21T11:05:31;100288.91;;;12.50;71.05
32081;BME280;18593;51.426;7.030;2023-04-21T11:08:10;100278.19;;;12.50;70.80
32081;BME280;18593;51.426;7.030;2023-04-21T11:10:49;100276.09;;;12.52;70.66
32081;BME280;18593;51.426;7.030;2023-04-21T11:13:21;100278.31;;;12.55;71.06
32081;BME280;18593;51.426;7.030;2023-04-21T11:16:00;100279.34;;;12.54;70.28
32081;BME280;18593;51.426;7.030;2023-04-21T11:18:37;100273.78;;;12.55;70.37
32081;BME280;18593;51.426;7.030;2023-04-21T11:21:13;100260.75;;;12.59;70.39
32081;BME280;18593;51.426;7.030;2023-04-21T11:23:50;100264.59;;;12.63;70.25
32081;BME280;18593;51.426;7.030;2023-04-21T11:26:29;100260.19;;;12.69;71.09
32081;BME280;18593;51.426;7.030;2023-04-21T11:29:00;100246.97;;;12.74;71.64
32081;BME280;18593;51.426;7.030;2023-04-21T11:31:28;100245.78;;;12.81;71.97
32081;BME280;18593;51.426;7.030;2023-04-21T11:33:55;100233.56;;;12.85;70.73
32081;BME280;18593;51.426;7.030;2023-04-21T11:36:24;100229.41;;;12.89;70.67
32081;BME280;18593;51.426;7.030;2023-04-21T11:38:52;100226.03;;;12.94;70.28
32081;BME280;18593;51.426;7.030;2023-04-21T11:41:24;100210.88;;;13.00;69.02
32081;BME280;18593;51.426;7.030;2023-04-21T11:43:51;100220.91;;;13.04;69.52
32081;BME280;18593;51.426;7.030;2023-04-21T11:46:23;100215.91;;;13.08;69.16
32081;BME280;18593;51.426;7.030;2023-04-21T11:48:58;100216.00;;;13.13;68.69
32081;BME280;18593;51.426;7.030;2023-04-21T11:51:26;100204.34;;;13.19;69.17
32081;BME280;18593;51.426;7.030;2023-04-21T11:53:58;100202.88;;;13.23;67.41
32081;BME280;18593;51.426;7.030;2023-04-21T11:56:27;100203.69;;;13.24;67.81
32081;BME280;18593;51.426;7.030;2023-04-21T11:58:54;100213.19;;;13.31;68.59
32081;BME280;18593;51.426;7.030;2023-04-21T12:01:21;100202.03;;;13.34;67.26
32081;BME280;18593;51.426;7.030;2023-04-21T12:03:53;100195.16;;;13.38;67.18
32081;BME280;18593;51.426;7.030;2023-04-21T12:06:25;100206.22;;;13.42;67.74
32081;BME280;18593;51.426;7.030;2023-04-21T12:09:00;100193.41;;;13.44;66.90
32081;BME280;18593;51.426;7.030;2023-04-21T12:11:30;100198.28;;;13.47;66.55
32081;BME280;18593;51.426;7.030;2023-04-21T12:13:58;100193.75;;;13.48;66.58
32081;BME280;18593;51.426;7.030;2023-04-21T12:16:26;100187.56;;;13.47;65.87
32081;BME280;18593;51.426;7.030;2023-04-21T12:18:55;100188.59;;;13.46;65.45
32081;BME280;18593;51.426;7.030;2023-04-21T12:21:26;100193.97;;;13.46;65.39
32081;BME280;18593;51.426;7.030;2023-04-21T12:23:54;100191.28;;;13.46;65.54
32081;BME280;18593;51.426;7.030;2023-04-21T12:26:21;100190.25;;;13.47;65.43
32081;BME280;18593;51.426;7.030;2023-04-21T12:28:51;100178.69;;;13.47;65.41
32081;BME280;18593;51.426;7.030;2023-04-21T12:31:18;100165.91;;;13.49;64.64
32081;BME280;18593;51.426;7.030;2023-04-21T12:33:45;100159.81;;;13.53;65.27
32081;BME280;18593;51.426;7.030;2023-04-21T12:36:13;100152.94;;;13.57;65.57
32081;BME280;18593;51.426;7.030;2023-04-21T12:38:40;100155.47;;;13.64;65.17
32081;BME280;18593;51.426;7.030;2023-04-21T12:41:08;100152.41;;;13.72;65.61
32081;BME280;18593;51.426;7.030;2023-04-21T12:43:35;100149.34;;;13.80;64.75
32081;BME280;18593;51.426;7.030;2023-04-21T12:46:04;100145.13;;;13.84;64.58
32081;BME280;18593;51.426;7.030;2023-04-21T12:48:31;100136.03;;;13.85;63.81
32081;BME280;18593;51.426;7.030;2023-04-21T12:50:59;100137.34;;;13.83;63.37
32081;BME280;18593;51.426;7.030;2023-04-21T12:53:26;100138.13;;;13.83;63.66
32081;BME280;18593;51.426;7.030;2023-04-21T12:55:53;100138.47;;;13.87;64.01
32081;BME280;18593;51.426;7.030;2023-04-21T12:58:21;100130.53;;;13.92;64.20